Time;durP1;ratioP1;P1;durP2;ratioP2;P2;SDS_P1;SDS_P2;PMS_P1;PMS_P2;Temp;Humidity;BMP_temperature;BMP_pressure;BME280_temperature;BME280_humidity;BME280_pressure;Samples;Min_cycle;Max_cycle;Signal;HPM_P1;HPM_P2
2021/12/10 00:01:11;;;;;;;35.50;16.07;;;;;;;-1.40;89.21;99363.30;1769482;81;25658;-71
2021/12/10 00:03:49;;;;;;;42.73;19.52;;;;;;;-1.38;89.30;99361.73;1769630;81;25600;-71
2021/12/10 00:06:23;;;;;;;39.73;16.20;;;;;;;-1.34;89.67;99354.34;1769509;81;27844;-70
2021/12/10 00:08:55;;;;;;;32.70;14.93;;;;;;;-1.33;89.54;99360.44;1766661;81;25453;-70
2021/12/10 00:11:33;;;;;;;31.25;16.10;;;;;;;-1.33;89.48;99361.77;1769516;81;25550;-70
2021/12/10 00:14:00;;;;;;;38.25;16.85;;;;;;;-1.31;89.51;99372.95;1769436;81;26159;-70
2021/12/10 00:16:28;;;;;;;37.70;16.32;;;;;;;-1.30;89.45;99362.59;1769504;81;25390;-69
2021/12/10 00:19:07;;;;;;;37.23;16.70;;;;;;;-1.29;89.58;99359.41;1769190;81;27508;-71
2021/12/10 00:21:26;;;;;;;28.02;12.82;;;;;;;-1.31;89.50;99357.03;1767252;81;25762;-72
2021/12/10 00:23:56;;;;;;;35.83;16.02;;;;;;;-1.28;89.62;99354.38;1769462;81;25532;-72
2021/12/10 00:26:23;;;;;;;32.85;13.75;;;;;;;-1.29;89.58;99340.33;1769545;81;26557;-72
2021/12/10 00:28:51;;;;;;;33.23;14.10;;;;;;;-1.29;89.64;99341.66;1769561;81;25383;-71
2021/12/10 00:31:42;;;;;;;34.25;14.87;;;;;;;-1.30;89.74;99333.95;1769456;81;28138;-72
2021/12/10 00:34:11;;;;;;;34.25;14.78;;;;;;;-1.28;89.73;99329.97;1767502;81;25884;-71
2021/12/10 00:36:39;;;;;;;36.10;15.80;;;;;;;-1.25;89.96;99326.02;1769565;81;25370;-72
2021/12/10 00:39:10;;;;;;;36.73;15.00;;;;;;;-1.25;89.96;99314.87;1763729;80;25792;-72
2021/12/10 00:41:38;;;;;;;34.18;14.30;;;;;;;-1.22;89.98;99321.00;1760840;81;25616;-71
2021/12/10 00:44:05;;;;;;;38.02;15.80;;;;;;;-1.22;89.99;99322.33;1760697;81;27358;-72
2021/12/10 00:46:32;;;;;;;37.20;15.35;;;;;;;-1.18;90.00;99314.66;1760722;81;25569;-72
2021/12/10 00:48:59;;;;;;;38.90;15.70;;;;;;;-1.17;90.09;99313.61;1760762;81;25599;-72
2021/12/10 00:51:25;;;;;;;36.40;16.50;;;;;;;-1.16;90.07;99313.87;1760720;81;25630;-71
2021/12/10 00:53:52;;;;;;;38.00;17.45;;;;;;;-1.15;90.11;99310.17;1790123;79;25376;-71
2021/12/10 00:56:20;;;;;;;38.65;16.77;;;;;;;-1.15;90.17;99296.36;1790092;80;27430;-71
2021/12/10 00:58:46;;;;;;;40.80;17.17;;;;;;;-1.14;90.19;99293.20;1790030;79;25657;-72
2021/12/10 01:01:18;;;;;;;42.17;18.42;;;;;;;-1.14;90.38;99293.20;1790129;80;25608;-72
2021/12/10 01:03:53;;;;;;;37.80;16.65;;;;;;;-1.13;90.36;99290.80;1790136;79;25602;-72
2021/12/10 01:06:22;;;;;;;42.80;16.87;;;;;;;-1.13;90.35;99290.27;1790164;80;25422;-72
2021/12/10 01:08:53;;;;;;;35.25;16.35;;;;;;;-1.13;90.40;99288.15;1790260;80;27319;-72
2021/12/10 01:11:28;;;;;;;36.35;17.20;;;;;;;-1.11;90.49;99276.74;1790027;79;25684;-72
2021/12/10 01:14:07;;;;;;;45.33;17.92;;;;;;;-1.10;90.72;99261.64;1790080;80;25440;-72
2021/12/10 01:24:51;;;;;;;38.42;15.78;;;;;;;-1.16;90.73;99266.09;1790038;80;25566;-71
2021/12/10 01:27:24;;;;;;;41.35;16.85;;;;;;;-1.16;90.80;99261.61;1788901;79;25569;-72
2021/12/10 01:30:03;;;;;;;40.48;15.30;;;;;;;-1.15;91.18;99251.78;1788962;79;25630;-72
2021/12/10 01:32:36;;;;;;;37.88;14.50;;;;;;;-1.13;90.98;99246.48;1671229;85;25582;-71
2021/12/10 01:35:07;;;;;;;38.92;14.43;;;;;;;-1.09;91.03;99239.33;1699276;84;27329;-72
2021/12/10 01:37:33;;;;;;;39.53;15.35;;;;;;;-1.08;91.11;99243.06;1669502;85;25615;-72
2021/12/10 01:40:00;;;;;;;37.05;15.28;;;;;;;-1.05;91.02;99229.81;1699240;84;25640;-72
2021/12/10 01:44:58;;;;;;;39.42;15.25;;;;;;;-1.01;91.40;99218.41;1699322;84;25461;-72
2021/12/10 01:47:29;;;;;;;40.12;16.35;;;;;;;-0.99;91.31;99226.93;1674353;84;27280;-73
2021/12/10 01:49:58;;;;;;;34.18;14.50;;;;;;;-0.96;91.27;99244.18;1699164;84;25722;-72
2021/12/10 01:52:26;;;;;;;35.00;14.20;;;;;;;-0.95;91.29;99237.83;1699287;84;25761;-72
2021/12/10 01:54:57;;;;;;;40.43;15.48;;;;;;;-0.93;91.34;99233.59;1699283;84;26328;-72
2021/12/10 01:57:29;;;;;;;40.12;15.48;;;;;;;-0.92;91.20;99239.94;1722178;83;25458;-71
2021/12/10 01:59:57;;;;;;;36.95;14.45;;;;;;;-0.90;91.31;99230.39;1728552;83;27931;-72
2021/12/10 02:02:28;;;;;;;35.75;15.70;;;;;;;-0.88;91.33;99221.13;1728589;83;25707;-72
2021/12/10 02:04:56;;;;;;;37.08;15.23;;;;;;;-0.87;91.28;99221.41;1729190;83;25740;-72
2021/12/10 02:07:27;;;;;;;42.65;16.40;;;;;;;-0.87;91.27;99220.08;1729138;83;25661;-72
2021/12/10 02:09:55;;;;;;;37.90;15.25;;;;;;;-0.84;91.43;99216.88;1729148;83;25405;-71
2021/12/10 02:12:23;;;;;;;35.28;14.43;;;;;;;-0.81;91.47;99220.35;1729165;83;27318;-71
2021/12/10 02:14:59;;;;;;;40.38;15.63;;;;;;;-0.79;91.45;99219.55;1729099;83;25566;-71
2021/12/10 02:17:20;;;;;;;36.05;15.23;;;;;;;-0.76;91.47;99215.59;1697333;84;25806;-72
2021/12/10 02:19:46;;;;;;;39.88;15.85;;;;;;;-0.72;91.52;99215.34;1729136;83;25634;-72
2021/12/10 02:22:13;;;;;;;39.25;14.80;;;;;;;-0.72;91.40;99211.35;1729148;83;25663;-72
2021/12/10 02:24:39;;;;;;;39.00;16.15;;;;;;;-0.71;91.52;99204.99;1729141;83;27309;-72
2021/12/10 02:27:08;;;;;;;32.63;14.63;;;;;;;-0.69;91.55;99196.23;1729073;83;25523;-72
2021/12/10 02:29:38;;;;;;;41.68;16.20;;;;;;;-0.69;91.55;99199.42;1704864;83;25499;-72
2021/12/10 02:32:09;;;;;;;34.58;14.10;;;;;;;-0.69;91.63;99188.26;1693129;84;26231;-72
2021/12/10 02:34:35;;;;;;;36.93;16.40;;;;;;;-0.66;91.70;99182.97;1707047;83;25586;-73
2021/12/10 02:37:03;;;;;;;43.13;16.15;;;;;;;-0.64;91.73;99185.62;1707096;84;27032;-72
2021/12/10 02:39:31;;;;;;;34.38;14.33;;;;;;;-0.60;91.76;99177.92;1683213;84;25745;-72
2021/12/10 02:41:57;;;;;;;38.73;15.65;;;;;;;-0.60;91.62;99171.28;1714711;83;25634;-72
2021/12/10 02:44:29;;;;;;;35.83;14.90;;;;;;;-0.61;91.62;99178.46;1714705;83;26183;-72
2021/12/10 02:46:57;;;;;;;36.80;15.93;;;;;;;-0.61;91.65;99172.36;1714698;83;25568;-71
2021/12/10 02:49:24;;;;;;;33.33;14.40;;;;;;;-0.61;91.81;99171.82;1714674;83;27939;-71
2021/12/10 02:51:50;;;;;;;39.33;15.13;;;;;;;-0.62;91.79;99154.28;1714574;83;25507;-72
2021/12/10 02:54:22;;;;;;;38.35;15.45;;;;;;;-0.62;91.82;99163.57;1705028;84;25465;-72
2021/12/10 02:56:46;;;;;;;35.83;15.65;;;;;;;-0.62;91.85;99166.77;1704507;84;25660;-72
2021/12/10 02:59:13;;;;;;;37.78;14.85;;;;;;;-0.60;92.08;99161.45;1705110;83;25647;-73
2021/12/10 03:01:45;;;;;;;29.55;12.30;;;;;;;-0.58;92.11;99162.52;1705004;84;27363;-72
2021/12/10 03:04:13;;;;;;;40.67;16.32;;;;;;;-0.56;92.08;99155.11;1704926;84;25653;-72
2021/12/10 03:06:49;;;;;;;39.05;15.53;;;;;;;-0.55;92.05;99159.34;1705012;83;25422;-72
2021/12/10 03:09:19;;;;;;;35.33;13.95;;;;;;;-0.53;92.10;99159.08;1704345;84;26259;-72
2021/12/10 03:11:48;;;;;;;36.40;14.68;;;;;;;-0.52;92.14;99171.31;1705006;84;25389;-72
2021/12/10 03:14:22;;;;;;;35.00;14.60;;;;;;;-0.52;92.21;99172.10;1705188;83;27393;-73
2021/12/10 03:16:52;;;;;;;36.88;15.40;;;;;;;-0.51;92.10;99173.71;1704910;84;25614;-72
2021/12/10 03:19:19;;;;;;;37.45;15.03;;;;;;;-0.49;92.17;99170.79;1705002;84;25703;-72
2021/12/10 03:21:47;;;;;;;31.70;13.98;;;;;;;-0.51;92.25;99157.77;1704984;84;25698;-72
2021/12/10 03:24:18;;;;;;;28.30;13.30;;;;;;;-0.51;92.27;99149.80;1704990;83;25490;-72
2021/12/10 03:26:45;;;;;;;32.50;13.90;;;;;;;-0.49;92.52;99160.16;1705018;83;27900;-73
2021/12/10 03:29:12;;;;;;;31.65;14.13;;;;;;;-0.51;92.36;99165.73;1678551;84;25652;-71
2021/12/10 03:31:40;;;;;;;31.33;12.60;;;;;;;-0.50;92.70;99162.00;1713430;82;25723;-71
2021/12/10 03:34:08;;;;;;;32.10;13.60;;;;;;;-0.50;92.57;99168.64;1706932;84;25706;-71
2021/12/10 03:36:35;;;;;;;32.95;14.05;;;;;;;-0.48;92.72;99160.41;1697944;83;25652;-71
2021/12/10 03:39:03;;;;;;;26.68;12.33;;;;;;;-0.48;92.66;99138.63;1698280;83;27433;-71
2021/12/10 03:41:30;;;;;;;33.25;14.35;;;;;;;-0.45;92.68;99133.33;1723140;82;25406;-71
2021/12/10 03:43:57;;;;;;;26.70;13.15;;;;;;;-0.44;92.69;99122.98;1673648;83;25430;-72
2021/12/10 03:46:24;;;;;;;26.52;12.35;;;;;;;-0.39;92.84;99126.97;1722869;83;25627;-72
2021/12/10 03:48:52;;;;;;;29.48;13.28;;;;;;;-0.34;92.83;99122.16;1722973;83;25645;-72
2021/12/10 03:51:23;;;;;;;23.02;12.00;;;;;;;-0.32;92.77;99127.50;1697023;83;27241;-72
2021/12/10 03:53:51;;;;;;;29.98;12.82;;;;;;;-0.30;92.79;99127.23;1722812;82;25591;-72
2021/12/10 03:56:21;;;;;;;25.05;12.03;;;;;;;-0.28;92.75;99123.77;1698137;83;25500;-72
2021/12/10 03:58:50;;;;;;;24.65;11.43;;;;;;;-0.26;92.88;99107.81;1722956;83;25786;-72
2021/12/10 04:01:22;;;;;;;27.93;12.10;;;;;;;-0.24;92.91;99111.02;1723038;83;25427;-72
2021/12/10 04:03:52;;;;;;;28.50;13.75;;;;;;;-0.21;92.90;99097.18;1696996;83;27223;-72
2021/12/10 04:06:20;;;;;;;35.90;14.75;;;;;;;-0.18;93.15;99098.52;1722964;82;25441;-72
2021/12/10 04:08:48;;;;;;;24.43;11.70;;;;;;;-0.17;93.02;99101.45;1698441;83;25628;-72
2021/12/10 04:11:17;;;;;;;28.15;13.28;;;;;;;-0.15;93.01;99102.49;1722976;83;25690;-72
2021/12/10 04:13:48;;;;;;;33.95;13.93;;;;;;;-0.16;93.00;99100.91;1723159;83;32399;-72
2021/12/10 04:16:17;;;;;;;28.35;12.80;;;;;;;-0.17;93.13;99100.64;1722976;83;27536;-72
2021/12/10 04:18:45;;;;;;;28.47;14.35;;;;;;;-0.17;93.21;99099.31;1723111;82;25741;-72
2021/12/10 04:21:13;;;;;;;26.27;12.33;;;;;;;-0.17;93.29;99103.30;1723017;82;25619;-72
2021/12/10 04:23:41;;;;;;;28.50;13.75;;;;;;;-0.16;93.42;99093.73;1722966;83;25781;-72
2021/12/10 04:26:11;;;;;;;26.05;11.93;;;;;;;-0.19;93.48;99090.27;1723052;83;25406;-72
2021/12/10 04:28:38;;;;;;;27.80;12.47;;;;;;;-0.18;93.62;99082.58;1723137;83;27427;-72
2021/12/10 04:31:05;;;;;;;23.38;11.05;;;;;;;-0.17;93.67;99085.51;1723378;83;25424;-72
2021/12/10 04:33:32;;;;;;;26.48;12.13;;;;;;;-0.17;93.71;99080.19;1727968;83;25630;-72
2021/12/10 04:36:01;;;;;;;25.35;11.83;;;;;;;-0.18;93.95;99066.62;1703726;84;26163;-72
2021/12/10 04:38:33;;;;;;;27.50;11.75;;;;;;;-0.17;93.70;99076.20;1705986;82;25426;-72
2021/12/10 04:41:04;;;;;;;23.65;11.38;;;;;;;-0.17;93.76;99074.06;1702113;84;27442;-72
2021/12/10 04:43:34;;;;;;;28.83;12.55;;;;;;;-0.15;93.94;99078.56;1734655;82;25579;-72
2021/12/10 04:46:00;;;;;;;25.55;11.70;;;;;;;-0.15;94.05;99086.03;1734781;82;25396;-72
2021/12/10 04:48:32;;;;;;;22.25;11.00;;;;;;;-0.15;94.10;99078.06;1734653;82;25534;-72
2021/12/10 04:50:58;;;;;;;22.40;10.88;;;;;;;-0.15;94.12;99083.38;1733578;82;25450;-72
2021/12/10 04:53:25;;;;;;;21.50;11.28;;;;;;;-0.14;94.23;99076.98;1734792;82;27988;-72
2021/12/10 04:55:51;;;;;;;22.13;10.58;;;;;;;-0.13;94.33;99078.58;1734652;82;25579;-72
2021/12/10 04:58:21;;;;;;;24.37;10.80;;;;;;;-0.12;94.38;99070.06;1734768;82;25467;-72
2021/12/10 05:00:50;;;;;;;20.88;10.48;;;;;;;-0.11;94.23;99068.47;1734633;82;26203;-72
2021/12/10 05:03:18;;;;;;;21.80;10.10;;;;;;;-0.09;94.27;99063.68;1734710;82;25487;-72
2021/12/10 05:05:45;;;;;;;27.15;10.20;;;;;;;-0.07;94.33;99064.73;1734681;82;27378;-72
2021/12/10 05:08:14;;;;;;;24.05;11.65;;;;;;;-0.07;94.42;99062.91;1734529;82;25667;-71
2021/12/10 05:10:41;;;;;;;20.80;9.43;;;;;;;-0.05;94.41;99062.61;1705415;82;25562;-72
2021/12/10 05:13:08;;;;;;;19.00;8.75;;;;;;;-0.06;94.47;99058.38;1734627;82;25588;-71
2021/12/10 05:15:38;;;;;;;20.97;9.98;;;;;;;-0.03;94.60;99051.20;1703877;84;25447;-72
2021/12/10 05:18:06;;;;;;;20.85;9.65;;;;;;;0.01;94.52;99054.11;1734618;82;27392;-71
2021/12/10 05:20:37;;;;;;;22.32;10.03;;;;;;;0.04;94.58;99046.93;1703702;84;25670;-71
2021/12/10 05:23:07;;;;;;;19.65;9.45;;;;;;;0.06;94.85;99042.92;1734681;82;25606;-72
2021/12/10 05:25:34;;;;;;;17.52;9.00;;;;;;;0.09;94.55;99037.61;1734624;82;25666;-72
2021/12/10 05:28:00;;;;;;;17.07;8.50;;;;;;;0.11;94.54;99037.59;1734600;82;25600;-71
2021/12/10 05:30:30;;;;;;;19.25;9.75;;;;;;;0.15;94.63;99050.63;1703820;84;27405;-71
2021/12/10 05:33:01;;;;;;;19.57;9.13;;;;;;;0.16;94.57;99036.24;1733204;82;25746;-70
2021/12/10 05:35:30;;;;;;;17.62;8.73;;;;;;;0.20;94.56;99034.38;1703805;84;25499;-71
2021/12/10 05:37:56;;;;;;;13.20;6.90;;;;;;;0.21;94.43;99037.31;1734510;82;25630;-71
2021/12/10 05:40:24;;;;;;;24.82;9.73;;;;;;;0.23;94.77;99018.67;1675568;84;25603;-70
2021/12/10 05:42:52;;;;;;;22.93;9.25;;;;;;;0.23;94.48;99020.00;1734665;82;28049;-70
2021/12/10 05:45:22;;;;;;;17.60;8.40;;;;;;;0.26;94.53;99018.67;1703742;84;25448;-70
2021/12/10 05:47:49;;;;;;;20.17;9.20;;;;;;;0.26;94.59;99020.80;1737656;82;25614;-70
2021/12/10 05:50:19;;;;;;;20.85;9.70;;;;;;;0.28;94.58;99023.97;1705448;82;26438;-71
2021/12/10 05:52:49;;;;;;;26.42;12.07;;;;;;;0.30;94.52;99024.48;1734717;82;25679;-70
2021/12/10 05:55:17;;;;;;;17.42;8.75;;;;;;;0.36;94.65;99026.62;1703886;84;27932;-72
2021/12/10 05:57:45;;;;;;;18.27;8.45;;;;;;;0.36;94.59;99015.44;1737448;82;25552;-71
2021/12/10 06:00:20;;;;;;;20.05;9.53;;;;;;;0.38;94.52;99017.83;1734852;82;25470;-71
2021/12/10 06:02:48;;;;;;;16.93;9.63;;;;;;;0.39;94.44;99019.40;1734642;82;26212;-71
2021/12/10 06:05:16;;;;;;;19.62;9.83;;;;;;;0.38;94.33;99026.34;1703773;84;25577;-71
2021/12/10 06:07:43;;;;;;;14.93;7.70;;;;;;;0.39;94.65;99029.25;1734631;82;28036;-70
2021/12/10 06:10:12;;;;;;;16.62;8.40;;;;;;;0.40;94.63;99024.20;1703637;84;25704;-71
2021/12/10 06:12:40;;;;;;;16.93;9.70;;;;;;;0.39;94.54;99023.39;1734784;82;25605;-71
2021/12/10 06:15:10;;;;;;;17.98;8.80;;;;;;;0.44;94.60;99021.25;1703730;84;26499;-71
2021/12/10 06:17:36;;;;;;;;;;;;;;;0.44;94.50;99035.34;1732805;82;25457;-71
2021/12/10 06:20:07;;;;;;;17.07;8.33;;;;;;;0.45;94.58;99038.81;1675619;84;27370;-71
2021/12/10 06:22:35;;;;;;;18.17;8.48;;;;;;;0.45;94.47;99040.94;1737432;82;25458;-71
2021/12/10 06:25:06;;;;;;;18.82;8.63;;;;;;;0.46;94.62;99033.23;1734619;82;25651;-71
2021/12/10 06:27:32;;;;;;;23.22;9.48;;;;;;;0.49;94.63;99033.20;1734610;82;25806;-74
2021/12/10 06:30:01;;;;;;;16.67;8.15;;;;;;;0.50;94.51;99037.47;1699117;84;25448;-74
2021/12/10 06:32:28;;;;;;;16.97;9.13;;;;;;;0.51;94.59;99038.53;1731072;82;27335;-74
2021/12/10 06:34:55;;;;;;;16.85;8.18;;;;;;;0.51;94.57;99040.37;1682469;84;25807;-74
2021/12/10 06:37:24;;;;;;;20.68;8.98;;;;;;;0.50;94.51;99046.78;1722939;83;25430;-74
2021/12/10 06:39:50;;;;;;;22.32;11.08;;;;;;;0.47;94.54;99043.33;1722866;83;26208;-74
2021/12/10 06:42:17;;;;;;;21.00;9.78;;;;;;;0.51;94.57;99043.03;1722956;83;25302;-74
2021/12/10 06:44:44;;;;;;;22.75;9.45;;;;;;;0.52;94.53;99030.00;1722961;83;27378;-75
2021/12/10 06:47:11;;;;;;;16.87;8.50;;;;;;;0.51;94.59;99030.55;1723007;83;25706;-75
2021/12/10 06:49:38;;;;;;;21.37;9.55;;;;;;;0.51;94.61;99033.72;1723000;83;25462;-75
2021/12/10 06:52:06;;;;;;;19.48;9.18;;;;;;;0.52;94.55;99035.32;1722934;83;25672;-74
2021/12/10 06:54:33;;;;;;;19.15;9.50;;;;;;;0.52;94.60;99044.63;1722344;82;25691;-74
2021/12/10 06:57:00;;;;;;;20.20;9.78;;;;;;;0.55;94.80;99054.20;1723043;82;28016;-75
2021/12/10 06:59:27;;;;;;;20.30;8.83;;;;;;;0.58;94.65;99047.55;1722905;82;25679;-74
2021/12/10 07:02:15;;;;;;;18.90;9.48;;;;;;;0.60;94.76;99048.61;1722880;83;25636;-74
2021/12/10 07:04:42;;;;;;;20.12;9.95;;;;;;;0.61;94.69;99056.29;1728209;83;25694;-74
2021/12/10 07:07:11;;;;;;;20.15;9.15;;;;;;;0.65;94.83;99067.21;1702964;83;25291;-74
2021/12/10 07:09:39;;;;;;;18.07;10.40;;;;;;;0.68;94.75;99068.80;1728217;83;27356;-74
2021/12/10 07:12:07;;;;;;;22.67;11.25;;;;;;;0.71;94.65;99066.10;1728071;83;25514;-74
2021/12/10 07:14:35;;;;;;;22.00;9.93;;;;;;;0.74;94.63;99073.55;1728221;83;25600;-74
2021/12/10 07:17:03;;;;;;;22.90;11.83;;;;;;;0.72;94.42;99071.16;1702754;83;25748;-73
2021/12/10 07:19:30;;;;;;;23.30;10.80;;;;;;;0.72;94.48;99069.83;1728317;83;25716;-76
2021/12/10 07:21:57;;;;;;;23.75;11.33;;;;;;;0.73;94.46;99077.27;1728140;83;27853;-75
2021/12/10 07:24:24;;;;;;;21.68;10.60;;;;;;;0.71;94.63;99070.87;1728122;83;25653;-74
2021/12/10 07:26:51;;;;;;;19.42;9.80;;;;;;;0.69;94.62;99075.69;1728383;83;25743;-74
2021/12/10 07:29:21;;;;;;;24.85;11.38;;;;;;;0.69;94.56;99067.70;1738386;82;25805;-74
2021/12/10 07:31:48;;;;;;;20.85;10.03;;;;;;;0.71;94.47;99066.10;1746124;82;25244;-74
2021/12/10 07:34:15;;;;;;;20.32;10.50;;;;;;;0.73;94.60;99061.30;1746234;82;27326;-73
2021/12/10 07:36:42;;;;;;;21.12;10.48;;;;;;;0.74;94.40;99053.58;1746066;82;25643;-72
2021/12/10 07:39:10;;;;;;;24.45;10.88;;;;;;;0.74;94.37;99069.01;1746068;82;25439;-73
2021/12/10 07:41:40;;;;;;;19.42;10.93;;;;;;;0.76;94.32;99067.95;1746082;82;25635;-73
2021/12/10 07:44:08;;;;;;;20.32;11.40;;;;;;;0.80;94.46;99069.80;1746097;82;25636;-72
2021/12/10 07:46:35;;;;;;;25.75;12.58;;;;;;;0.80;94.35;99067.66;1746109;82;27342;-72
2021/12/10 07:49:04;;;;;;;25.68;12.65;;;;;;;0.79;94.17;99071.41;1745997;82;25388;-72
2021/12/10 07:51:32;;;;;;;22.95;11.80;;;;;;;0.77;94.11;99069.02;1746147;82;25459;-72
2021/12/10 07:54:00;;;;;;;19.27;10.68;;;;;;;0.76;94.08;99062.63;1745846;82;25628;-72
2021/12/10 07:56:30;;;;;;;20.55;10.85;;;;;;;0.74;94.09;99067.68;1746063;82;25713;-72
2021/12/10 07:58:58;;;;;;;21.55;10.95;;;;;;;0.72;94.13;99063.17;1746051;82;27331;-72
2021/12/10 08:01:29;;;;;;;23.10;11.22;;;;;;;0.71;94.16;99070.87;1745977;82;25615;-72
2021/12/10 08:03:57;;;;;;;20.55;11.48;;;;;;;0.70;94.26;99070.64;1745903;82;25766;-72
2021/12/10 08:06:26;;;;;;;22.98;11.08;;;;;;;0.73;94.37;99075.94;1746036;82;25619;-72
2021/12/10 08:08:53;;;;;;;21.48;11.03;;;;;;;0.74;94.45;99082.31;1746235;82;25408;-72
2021/12/10 08:11:22;;;;;;;22.75;11.15;;;;;;;0.77;94.50;99080.99;1746064;82;27990;-72
2021/12/10 08:13:49;;;;;;;17.60;8.65;;;;;;;0.77;94.42;99084.98;1746062;82;25591;-72
2021/12/10 08:16:16;;;;;;;23.20;11.63;;;;;;;0.79;94.56;99086.05;1745977;82;25528;-73
2021/12/10 08:18:45;;;;;;;22.75;12.85;;;;;;;0.79;94.51;99091.37;1745967;82;25631;-73
2021/12/10 08:21:12;;;;;;;22.00;12.80;;;;;;;0.79;94.58;99089.49;1746355;82;25702;-72
2021/12/10 08:23:40;;;;;;;26.05;12.00;;;;;;;0.80;94.53;99089.77;1746062;82;28039;-76
2021/12/10 08:26:07;;;;;;;21.15;12.15;;;;;;;0.82;94.59;99088.95;1745919;82;25634;-72
2021/12/10 08:28:34;;;;;;;20.02;11.65;;;;;;;0.84;94.54;99082.03;1721521;82;25641;-77
2021/12/10 08:31:03;;;;;;;21.87;11.45;;;;;;;0.86;94.63;99081.21;1746033;82;25730;-77
2021/12/10 08:33:31;;;;;;;23.10;11.68;;;;;;;0.89;94.56;99079.34;1746330;82;25160;-77
2021/12/10 08:36:03;;;;;;;20.00;11.80;;;;;;;0.89;94.52;99075.34;1746156;82;26864;-77
2021/12/10 08:38:32;;;;;;;23.02;12.03;;;;;;;0.88;94.50;99074.53;1746145;82;25531;-76
2021/12/10 08:41:04;;;;;;;19.45;10.78;;;;;;;0.88;94.41;99072.41;1746279;82;25400;-76
2021/12/10 08:43:31;;;;;;;20.30;11.10;;;;;;;0.89;94.46;99078.01;1746039;82;25557;-78
2021/12/10 08:46:00;;;;;;;20.57;12.00;;;;;;;0.90;94.59;99076.41;1746112;81;25626;-76
2021/12/10 08:48:30;;;;;;;22.17;11.85;;;;;;;0.94;94.62;99081.98;1746332;82;28073;-76
2021/12/10 08:51:01;;;;;;;25.95;12.82;;;;;;;0.95;94.62;99084.09;1746245;82;25576;-76
2021/12/10 08:53:27;;;;;;;26.20;13.80;;;;;;;0.98;94.64;99094.98;1746273;82;25553;-76
2021/12/10 08:55:57;;;;;;;21.85;12.37;;;;;;;0.98;94.60;99086.21;1746183;82;25642;-75
2021/12/10 08:58:26;;;;;;;26.25;13.43;;;;;;;0.97;94.53;99083.28;1746094;82;25562;-75
2021/12/10 09:00:58;;;;;;;23.43;12.37;;;;;;;0.98;94.60;99082.22;1723093;82;27022;-75
2021/12/10 09:03:26;;;;;;;24.47;13.62;;;;;;;0.99;94.65;99095.77;1746053;82;25727;-75
2021/12/10 09:05:54;;;;;;;24.43;13.50;;;;;;;1.01;94.61;99097.11;1727589;83;25427;-76
2021/12/10 09:08:21;;;;;;;25.02;13.78;;;;;;;1.02;94.82;99100.55;1746148;82;25580;-75
2021/12/10 09:10:49;;;;;;;26.90;14.95;;;;;;;1.00;94.65;99093.38;1746226;82;25607;-75
2021/12/10 09:13:20;;;;;;;26.40;14.03;;;;;;;1.02;94.65;99085.40;1746288;82;28044;-75
2021/12/10 09:15:52;;;;;;;24.98;14.28;;;;;;;1.02;94.81;99086.73;1745993;82;25586;-75
2021/12/10 09:18:18;;;;;;;25.72;15.28;;;;;;;1.05;94.76;99082.70;1746189;82;25459;-74
2021/12/10 09:20:50;;;;;;;23.77;14.28;;;;;;;1.04;94.63;99083.25;1722690;82;25653;-74
2021/12/10 09:23:22;;;;;;;30.45;15.80;;;;;;;1.02;94.59;99088.06;1746235;82;25465;-75
2021/12/10 09:25:52;;;;;;;27.58;15.50;;;;;;;1.00;94.53;99066.21;1746268;82;27402;-75
2021/12/10 09:28:19;;;;;;;31.82;17.75;;;;;;;1.01;94.59;99073.69;1722671;82;25299;-75
2021/12/10 09:30:51;;;;;;;32.45;16.23;;;;;;;1.01;94.63;99078.47;1746088;82;25411;-76
2021/12/10 09:33:20;;;;;;;33.63;16.57;;;;;;;1.01;94.57;99071.81;1746109;82;25689;-77
2021/12/10 09:35:47;;;;;;;30.68;16.23;;;;;;;1.02;94.67;99085.91;1746211;82;25429;-77
2021/12/10 09:38:16;;;;;;;32.98;17.57;;;;;;;1.02;94.81;99071.27;1746147;82;27405;-80
2021/12/10 09:40:47;;;;;;;30.50;16.45;;;;;;;1.01;94.71;99078.47;1746722;82;29760;-80
2021/12/10 09:43:18;;;;;;;37.98;18.87;;;;;;;1.06;94.83;99085.09;1747038;82;25568;-79
2021/12/10 09:45:49;;;;;;;40.55;19.50;;;;;;;1.09;94.93;99092.54;1747095;82;25713;-79
2021/12/10 09:48:20;;;;;;;40.03;20.10;;;;;;;1.10;94.80;99103.98;1746984;82;25548;-80
2021/12/10 09:50:54;;;;;;;39.83;21.20;;;;;;;1.09;94.81;99093.87;1747290;82;27332;-78
2021/12/10 09:53:24;;;;;;;45.00;24.23;;;;;;;1.08;94.91;99088.81;1747213;82;25809;-79
2021/12/10 09:55:51;;;;;;;48.87;23.15;;;;;;;1.06;94.95;99082.43;1746813;82;25614;-79
2021/12/10 09:58:20;;;;;;;48.98;24.25;;;;;;;1.05;94.88;99088.81;1746834;81;25790;-80
2021/12/10 10:00:52;;;;;;;46.20;24.25;;;;;;;1.03;95.61;99080.86;1746946;82;25603;-79
2021/12/10 10:03:24;;;;;;;45.17;22.82;;;;;;;1.02;95.14;99080.07;1747029;82;27896;-79
2021/12/10 10:05:51;;;;;;;49.23;24.98;;;;;;;1.03;95.24;99083.52;1746826;82;25783;-79
2021/12/10 10:08:21;;;;;;;47.33;23.90;;;;;;;1.02;95.34;99081.41;1723741;82;25689;-79
2021/12/10 10:10:55;;;;;;;53.10;26.55;;;;;;;1.03;95.30;99094.17;1747241;82;26328;-80
2021/12/10 10:13:30;;;;;;;43.73;22.55;;;;;;;1.02;95.53;99090.72;1747309;82;25417;-80
2021/12/10 10:15:59;;;;;;;48.35;24.32;;;;;;;1.01;95.28;99095.77;1746901;82;27373;-80
2021/12/10 10:18:30;;;;;;;45.70;24.32;;;;;;;1.02;95.45;99085.91;1741054;82;25650;-79
2021/12/10 10:21:02;;;;;;;53.08;25.65;;;;;;;1.03;95.55;99085.64;1722812;83;25431;-78
2021/12/10 10:23:29;;;;;;;53.98;25.60;;;;;;;1.03;95.51;99072.33;1722927;83;25665;-79
2021/12/10 10:26:00;;;;;;;52.45;25.15;;;;;;;1.04;95.47;99070.45;1723008;83;25478;-79
2021/12/10 10:28:28;;;;;;;56.30;27.22;;;;;;;1.06;95.62;99061.67;1723052;83;27332;-79
2021/12/10 10:31:01;;;;;;;52.17;25.70;;;;;;;1.05;95.64;99057.41;1723095;83;25478;-78
2021/12/10 10:33:32;;;;;;;53.95;25.02;;;;;;;1.04;95.61;99071.78;1723183;83;25589;-80
2021/12/10 10:36:06;;;;;;;57.62;26.97;;;;;;;1.04;95.68;99060.61;1723124;83;25652;-79
2021/12/10 10:38:33;;;;;;;54.35;25.70;;;;;;;1.05;95.69;99068.06;1723540;83;25627;-79
2021/12/10 10:41:05;;;;;;;59.33;25.90;;;;;;;1.07;95.66;99073.89;1723254;83;27948;-78
2021/12/10 10:43:33;;;;;;;53.28;25.55;;;;;;;1.07;95.71;99089.36;1723352;83;25549;-79
2021/12/10 10:45:59;;;;;;;52.78;25.72;;;;;;;1.08;95.65;99079.50;1723414;83;25625;-79
2021/12/10 10:48:28;;;;;;;52.43;25.50;;;;;;;1.11;95.81;99070.42;1709192;83;25647;-78
2021/12/10 10:51:03;;;;;;;53.02;24.90;;;;;;;1.11;95.78;99069.63;1706173;84;25298;-79
2021/12/10 10:53:34;;;;;;;54.67;26.10;;;;;;;1.11;95.70;99071.75;1705937;84;27412;-79
2021/12/10 10:56:06;;;;;;;52.80;26.60;;;;;;;1.13;95.74;99080.01;1704366;84;25491;-77
2021/12/10 10:58:38;;;;;;;53.05;25.52;;;;;;;1.12;95.72;99088.52;1702385;84;25515;-77
2021/12/10 11:01:21;;;;;;;54.77;25.37;;;;;;;1.10;95.83;99082.12;1679804;84;25645;-78
2021/12/10 11:03:54;;;;;;;56.30;26.95;;;;;;;1.09;95.71;99077.08;1707382;82;25568;-77
2021/12/10 11:06:28;;;;;;;57.50;27.20;;;;;;;1.10;95.76;99074.69;1735169;82;27439;-79
2021/12/10 11:09:09;;;;;;;54.35;24.98;;;;;;;1.10;95.82;99076.80;1736883;82;25540;-80
2021/12/10 11:11:41;;;;;;;56.95;26.25;;;;;;;1.07;95.75;99076.05;1722695;82;25425;-79
2021/12/10 11:14:09;;;;;;;;;;;;;;;1.05;95.88;99078.16;1738382;82;25563;-79
2021/12/10 11:16:40;;;;;;;54.67;24.87;;;;;;;1.06;95.85;99077.65;1735443;82;25631;-79
2021/12/10 11:19:16;;;;;;;54.75;26.17;;;;;;;1.07;95.91;99080.04;1735411;82;27266;-78
2021/12/10 11:22:00;;;;;;;55.12;25.35;;;;;;;1.03;95.98;99059.55;1735239;82;25628;-77
2021/12/10 11:24:46;;;;;;;60.83;25.52;;;;;;;1.03;95.88;99064.88;1735274;82;25531;-77
2021/12/10 11:27:30;;;;;;;52.00;23.95;;;;;;;1.04;95.96;99065.13;1735469;82;25718;-77
2021/12/10 11:30:05;;;;;;;61.73;24.30;;;;;;;1.07;96.12;99069.91;1735347;82;25623;-77
2021/12/10 11:32:45;;;;;;;51.77;22.75;;;;;;;1.07;96.20;99062.73;1735127;82;27477;-76
2021/12/10 11:35:23;;;;;;;51.02;25.02;;;;;;;1.06;95.97;99059.80;1731735;82;25544;-76
2021/12/10 11:38:08;;;;;;;54.58;25.55;;;;;;;1.08;96.12;99063.52;1735226;82;25519;-76
2021/12/10 11:40:47;;;;;;;54.67;23.73;;;;;;;1.10;96.09;99072.81;1735119;82;25609;-77
2021/12/10 11:46:47;;;;;;;58.70;24.75;;;;;;;1.10;96.03;99058.70;1648856;87;27349;-76
2021/12/10 11:49:29;;;;;;;56.15;25.45;;;;;;;1.11;96.09;99058.43;1648996;87;25580;-76